There are multiple Weather-warnings   Click here for more information


Meteo18 Weather Cam more information Meteo18 Weather Cam


warning for Thunderstorms more information blitzortung!


Rain radar more information rain snow radar


Visit our other weather sites:

Template documentation
and downloads

And another site



Weather Underground History page Text

Daily Summary for April 9, 2016 Units:  Metric    English   Both
« Previous Day
Next Day »
Daily Weekly Monthly Yearly Custom
  High: Low: Average:
Temperature: 14.3 °C -0.7 °C 6.2 °C
Dew Point: 8.9 °C -1.3 °C 4.3 °C
Humidity: 97 % 62 % 89 %
Wind Speed: 11.3 km/h 0.0 km/h 1.5 km/h
Wind Gust: 16.1 km/h - -
Wind:- - SW
Pressure: 1011.4 hPa 1006.3 hPa -
Precipitation: 2.3 mm    
Historical Graphs
 
 
Tabular Data for April 9, 2016
Time Temperature Dew Point Pressure Wind Wind Speed Wind Gust Humidity Rainfall Rate (Hourly)
00:07 2.4 °C 1.2 °C 1011.4 hPa Calm     92 % 0.0 mm
00:12 2.2 °C 1.0 °C 1011.4 hPa Calm     92 % 0.0 mm
00:17 2.2 °C 1.2 °C 1011.1 hPa Calm     93 % 0.0 mm
00:22 2.2 °C 1.2 °C 1011.1 hPa Calm     93 % 0.0 mm
00:27 2.1 °C 0.9 °C 1011.1 hPa Calm     92 % 0.0 mm
00:32 1.8 °C 0.6 °C 1011.1 hPa Calm     92 % 0.0 mm
00:37 1.7 °C 0.7 °C 1011.1 hPa Calm     93 % 0.0 mm
00:42 1.7 °C 0.7 °C 1011.1 hPa Calm     93 % 0.0 mm
00:47 1.7 °C 0.7 °C 1011.1 hPa Calm     93 % 0.0 mm
00:52 1.7 °C 0.7 °C 1011.1 hPa Calm     93 % 0.0 mm
00:57 1.6 °C 0.6 °C 1011.1 hPa Calm     93 % 0.0 mm
01:02 1.6 °C 0.6 °C 1011.1 hPa Calm     93 % 0.0 mm
01:07 1.6 °C 0.7 °C 1011.1 hPa Calm     94 % 0.0 mm
01:17 1.3 °C 0.3 °C 1011.1 hPa Calm     93 % 0.0 mm
01:22 1.4 °C 0.5 °C 1011.1 hPa Calm   1.6 km/h 94 % 0.0 mm
01:27 1.5 °C 0.6 °C 1011.1 hPa Calm   1.6 km/h 94 % 0.0 mm
01:32 1.4 °C 0.5 °C 1011.1 hPa Calm   1.6 km/h 94 % 0.0 mm
01:37 1.3 °C 0.3 °C 1011.1 hPa Calm     93 % 0.0 mm
01:42 1.3 °C 0.4 °C 1010.7 hPa Calm     94 % 0.0 mm
01:47 1.2 °C 0.3 °C 1010.7 hPa Calm     94 % 0.0 mm
01:52 1.2 °C 0.3 °C 1010.7 hPa Calm     94 % 0.0 mm
01:57 1.1 °C 0.2 °C 1010.7 hPa Calm     94 % 0.0 mm
02:02 1.0 °C 0.1 °C 1010.7 hPa Calm     94 % 0.0 mm
02:07 0.8 °C -0.1 °C 1010.7 hPa Calm     94 % 0.0 mm
02:12 0.8 °C -0.1 °C 1010.7 hPa Calm     94 % 0.0 mm
02:17 1.1 °C 0.4 °C 1010.7 hPa Calm     95 % 0.0 mm
02:22 1.2 °C 0.5 °C 1010.7 hPa Calm   1.6 km/h 95 % 0.0 mm
02:27 1.2 °C 0.5 °C 1010.7 hPa Calm   1.6 km/h 95 % 0.0 mm
02:32 1.3 °C 0.6 °C 1010.7 hPa Calm   1.6 km/h 95 % 0.0 mm
02:37 1.3 °C 0.4 °C 1010.7 hPa Calm   1.6 km/h 94 % 0.0 mm
02:42 1.1 °C 0.2 °C 1010.4 hPa Calm     94 % 0.0 mm
02:47 0.9 °C 0.0 °C 1010.4 hPa Calm     94 % 0.0 mm
02:52 0.7 °C -0.3 °C 1010.4 hPa Calm     93 % 0.0 mm
02:57 0.6 °C -0.3 °C 1010.4 hPa Calm     94 % 0.0 mm
03:02 0.6 °C -0.3 °C 1010.4 hPa Calm     94 % 0.0 mm
03:07 0.4 °C -0.5 °C 1010.4 hPa Calm     94 % 0.0 mm
03:17 0.4 °C -0.3 °C 1010.0 hPa Calm     95 % 0.0 mm
03:22 0.4 °C -0.3 °C 1010.0 hPa Calm     95 % 0.0 mm
03:27 0.2 °C -0.7 °C 1010.0 hPa Calm     94 % 0.0 mm
03:32 0.2 °C -0.5 °C 1010.0 hPa Calm     95 % 0.0 mm
03:37 0.2 °C -0.5 °C 1010.0 hPa Calm     95 % 0.0 mm
03:42 0.3 °C -0.3 °C 1010.0 hPa Calm     96 % 0.0 mm
03:47 0.2 °C -0.5 °C 1010.0 hPa Calm     95 % 0.0 mm
03:52 0.1 °C -0.6 °C 1010.0 hPa Calm     95 % 0.0 mm
03:57 0.1 °C -0.5 °C 1010.0 hPa Calm     96 % 0.0 mm
04:02 0.1 °C -0.6 °C 1010.0 hPa Calm     95 % 0.0 mm
04:07 -0.1 °C -0.8 °C 1010.0 hPa Calm     95 % 0.0 mm
04:17 -0.2 °C -0.9 °C 1009.7 hPa Calm     95 % 0.0 mm
04:22 0.2 °C -0.4 °C 1009.7 hPa Calm   1.6 km/h 96 % 0.0 mm
04:27 -0.1 °C -0.8 °C 1009.7 hPa Calm   1.6 km/h 95 % 0.0 mm
04:32 -0.1 °C -0.8 °C 1010.0 hPa Calm   1.6 km/h 95 % 0.0 mm
04:37 -0.1 °C -0.7 °C 1010.0 hPa Calm   1.6 km/h 96 % 0.0 mm
04:42 -0.1 °C -0.7 °C 1010.0 hPa Calm     96 % 0.0 mm
04:47 -0.1 °C -0.7 °C 1010.0 hPa Calm     96 % 0.0 mm
04:52 0.1 °C -0.5 °C 1010.0 hPa Calm     96 % 0.0 mm
04:57 0.1 °C -0.5 °C 1010.0 hPa Calm   1.6 km/h 96 % 0.0 mm
05:02 -0.1 °C -0.8 °C 1009.7 hPa Calm   1.6 km/h 95 % 0.0 mm
05:07 -0.3 °C -1.0 °C 1009.7 hPa Calm   3.2 km/h 95 % 0.0 mm
05:12 -0.4 °C -1.1 °C 1009.7 hPa Calm   3.2 km/h 95 % 0.0 mm
05:17 -0.3 °C -0.9 °C 1009.4 hPa Calm   3.2 km/h 96 % 0.0 mm
05:22 -0.3 °C -1.0 °C 1009.4 hPa Calm   3.2 km/h 95 % 0.0 mm
05:27 -0.4 °C -1.1 °C 1009.4 hPa Calm     95 % 0.0 mm
05:32 -0.4 °C -1.1 °C 1009.4 hPa Calm     95 % 0.0 mm
05:37 -0.4 °C -1.0 °C 1009.4 hPa Calm   1.6 km/h 96 % 0.0 mm
05:42 -0.4 °C -1.0 °C 1009.4 hPa Calm   1.6 km/h 96 % 0.0 mm
05:47 -0.4 °C -1.0 °C 1009.4 hPa Calm   1.6 km/h 96 % 0.0 mm
05:57 -0.3 °C -0.9 °C 1009.4 hPa Calm   1.6 km/h 96 % 0.0 mm
06:02 -0.4 °C -1.0 °C 1009.4 hPa Calm   1.6 km/h 96 % 0.0 mm
06:07 -0.5 °C -1.1 °C 1009.0 hPa Calm   1.6 km/h 96 % 0.0 mm
06:17 -0.4 °C -1.0 °C 1009.0 hPa Calm   1.6 km/h 96 % 0.0 mm
06:22 -0.4 °C -1.0 °C 1009.0 hPa Calm   1.6 km/h 96 % 0.0 mm
06:32 -0.4 °C -1.0 °C 1009.0 hPa Calm   1.6 km/h 96 % 0.0 mm
06:42 -0.5 °C -1.1 °C 1009.0 hPa Calm   1.6 km/h 96 % 0.0 mm
06:47 -0.6 °C -1.2 °C 1009.0 hPa Calm   1.6 km/h 96 % 0.0 mm
06:52 -0.7 °C -1.3 °C 1009.0 hPa Calm     96 % 0.0 mm
06:57 -0.6 °C -1.2 °C 1009.0 hPa Calm     96 % 0.0 mm
07:02 -0.6 °C -1.0 °C 1009.0 hPa Calm     97 % 0.0 mm
07:07 -0.5 °C -0.9 °C 1009.0 hPa Calm   1.6 km/h 97 % 0.0 mm
07:17 -0.4 °C -0.8 °C 1009.0 hPa Calm   1.6 km/h 97 % 0.0 mm
07:22 -0.4 °C -1.0 °C 1009.0 hPa Calm   1.6 km/h 96 % 0.0 mm
07:27 -0.4 °C -1.0 °C 1009.0 hPa Calm   1.6 km/h 96 % 0.0 mm
07:32 -0.4 °C -1.0 °C 1009.0 hPa Calm   1.6 km/h 96 % 0.0 mm
07:37 -0.3 °C -0.9 °C 1009.0 hPa Calm   1.6 km/h 96 % 0.0 mm
07:42 -0.2 °C -0.6 °C 1009.0 hPa Calm   1.6 km/h 97 % 0.0 mm
07:47 0.1 °C -0.3 °C 1009.0 hPa Calm   1.6 km/h 97 % 0.0 mm
07:52 0.3 °C -0.1 °C 1009.0 hPa Calm   1.6 km/h 97 % 0.0 mm
07:57 0.5 °C 0.1 °C 1009.0 hPa Calm   1.6 km/h 97 % 0.0 mm
08:02 0.7 °C 0.3 °C 1009.0 hPa Calm   1.6 km/h 97 % 0.0 mm
08:12 1.1 °C 0.7 °C 1009.0 hPa Calm   1.6 km/h 97 % 0.0 mm
08:17 1.2 °C 0.8 °C 1009.0 hPa Calm   1.6 km/h 97 % 0.0 mm
08:27 1.7 °C 1.3 °C 1009.0 hPa Calm   1.6 km/h 97 % 0.0 mm
08:32 1.8 °C 1.4 °C 1009.4 hPa Calm   1.6 km/h 97 % 0.0 mm
08:37 1.9 °C 1.5 °C 1009.0 hPa Calm   1.6 km/h 97 % 0.0 mm
08:42 2.2 °C 1.8 °C 1009.0 hPa Calm   1.6 km/h 97 % 0.0 mm
08:47 2.5 °C 2.1 °C 1009.0 hPa Calm   1.6 km/h 97 % 0.0 mm
08:52 2.7 °C 2.3 °C 1009.0 hPa Calm   1.6 km/h 97 % 0.0 mm
08:57 2.8 °C 2.4 °C 1009.0 hPa Calm   1.6 km/h 97 % 0.0 mm
09:02 2.9 °C 2.5 °C 1009.4 hPa SW 1.6 km/h 1.6 km/h 97 % 0.0 mm
09:12 3.3 °C 2.9 °C 1009.0 hPa Calm   3.2 km/h 97 % 0.0 mm
09:17 3.4 °C 3.0 °C 1009.0 hPa Calm   3.2 km/h 97 % 0.0 mm
09:22 3.6 °C 3.2 °C 1009.0 hPa Calm   3.2 km/h 97 % 0.0 mm
09:32 4.2 °C 3.8 °C 1009.0 hPa Calm   4.8 km/h 97 % 0.0 mm
09:37 4.4 °C 4.0 °C 1009.0 hPa Calm   4.8 km/h 97 % 0.0 mm
09:42 4.4 °C 4.0 °C 1009.4 hPa WSW 1.6 km/h 4.8 km/h 97 % 0.0 mm
09:47 4.5 °C 3.9 °C 1009.0 hPa West 3.2 km/h 6.4 km/h 96 % 0.0 mm
09:52 4.4 °C 3.8 °C 1009.0 hPa Calm   6.4 km/h 96 % 0.0 mm
09:57 4.5 °C 3.9 °C 1009.0 hPa SW 1.6 km/h 6.4 km/h 96 % 0.0 mm
10:02 4.6 °C 4.0 °C 1009.0 hPa Calm   6.4 km/h 96 % 0.0 mm
10:07 4.7 °C 4.1 °C 1009.4 hPa Calm   6.4 km/h 96 % 0.0 mm
10:12 4.9 °C 4.3 °C 1009.0 hPa Calm   6.4 km/h 96 % 0.0 mm
10:17 5.0 °C 4.4 °C 1009.0 hPa Calm   4.8 km/h 96 % 0.0 mm
10:22 5.2 °C 4.6 °C 1009.0 hPa SW 4.8 km/h 4.8 km/h 96 % 0.0 mm
10:27 5.2 °C 4.6 °C 1009.0 hPa SW 1.6 km/h 4.8 km/h 96 % 0.0 mm
10:32 5.3 °C 4.7 °C 1009.0 hPa WSW 1.6 km/h 6.4 km/h 96 % 0.0 mm
10:37 5.4 °C 4.8 °C 1009.0 hPa SW 3.2 km/h 6.4 km/h 96 % 0.0 mm
10:47 5.8 °C 5.2 °C 1009.0 hPa SW 3.2 km/h 4.8 km/h 96 % 0.0 mm
10:52 5.8 °C 5.2 °C 1009.0 hPa Calm   6.4 km/h 96 % 0.0 mm
10:57 5.9 °C 5.3 °C 1009.0 hPa SW 1.6 km/h 6.4 km/h 96 % 0.0 mm
11:02 6.2 °C 5.6 °C 1009.0 hPa SW 4.8 km/h 6.4 km/h 96 % 0.0 mm
11:07 6.6 °C 6.0 °C 1009.0 hPa Calm   6.4 km/h 96 % 0.0 mm
11:12 6.7 °C 5.8 °C 1008.7 hPa WSW 4.8 km/h 6.4 km/h 94 % 0.0 mm
11:17 6.8 °C 5.9 °C 1008.7 hPa WSW 3.2 km/h 6.4 km/h 94 % 0.0 mm
11:22 7.1 °C 6.2 °C 1008.7 hPa Calm   6.4 km/h 94 % 0.0 mm
11:27 7.4 °C 6.5 °C 1008.7 hPa SW 4.8 km/h 6.4 km/h 94 % 0.0 mm
11:32 7.6 °C 6.5 °C 1008.7 hPa SW 1.6 km/h 6.4 km/h 93 % 0.0 mm
11:37 8.1 °C 6.7 °C 1008.4 hPa WSW 3.2 km/h 6.4 km/h 91 % 0.0 mm
11:42 8.8 °C 7.4 °C 1008.4 hPa Calm   8.0 km/h 91 % 0.0 mm
11:47 9.4 °C 7.3 °C 1008.4 hPa Calm   8.0 km/h 87 % 0.0 mm
11:52 10.2 °C 7.8 °C 1008.4 hPa WSW 4.8 km/h 8.0 km/h 85 % 0.0 mm
11:57 10.3 °C 7.5 °C 1008.4 hPa SW 1.6 km/h 9.7 km/h 83 % 0.0 mm
12:02 10.3 °C 7.4 °C 1008.4 hPa SW 1.6 km/h 9.7 km/h 82 % 0.0 mm
12:07 10.0 °C 6.9 °C 1008.4 hPa Calm   9.7 km/h 81 % 0.0 mm
12:12 10.1 °C 7.3 °C 1008.4 hPa WSW 3.2 km/h 8.0 km/h 83 % 0.0 mm
12:17 10.0 °C 7.1 °C 1008.4 hPa WSW 1.6 km/h 8.0 km/h 82 % 0.0 mm
12:22 10.3 °C 7.0 °C 1008.4 hPa SW 1.6 km/h 8.0 km/h 80 % 0.0 mm
12:32 10.2 °C 6.9 °C 1008.4 hPa SW 3.2 km/h 8.0 km/h 80 % 0.0 mm
12:42 10.8 °C 7.3 °C 1008.0 hPa WSW 3.2 km/h 9.7 km/h 79 % 0.0 mm
12:52 12.1 °C 8.0 °C 1008.0 hPa West 1.6 km/h 9.7 km/h 76 % 0.0 mm
12:57 12.4 °C 7.9 °C 1008.0 hPa SW 1.6 km/h 11.3 km/h 74 % 0.0 mm
13:02 11.9 °C 7.2 °C 1007.7 hPa Calm   11.3 km/h 73 % 0.0 mm
13:07 12.1 °C 7.6 °C 1007.7 hPa SW 4.8 km/h 11.3 km/h 74 % 0.0 mm
13:12 12.4 °C 7.7 °C 1007.7 hPa SW 3.2 km/h 11.3 km/h 73 % 0.0 mm
13:22 12.6 °C 8.1 °C 1007.7 hPa WNW 1.6 km/h 11.3 km/h 74 % 0.0 mm
13:27 12.6 °C 6.8 °C 1007.7 hPa SW 6.4 km/h 11.3 km/h 68 % 0.0 mm
13:32 12.5 °C 7.8 °C 1007.3 hPa SW 4.8 km/h 11.3 km/h 73 % 0.0 mm
13:37 12.7 °C 7.2 °C 1007.3 hPa WSW 1.6 km/h 9.7 km/h 69 % 0.0 mm
13:42 12.6 °C 7.3 °C 1007.3 hPa SW 4.8 km/h 11.3 km/h 70 % 0.0 mm
13:47 12.4 °C 6.9 °C 1007.3 hPa SW 6.4 km/h 11.3 km/h 69 % 0.0 mm
13:52 12.3 °C 7.0 °C 1007.3 hPa WSW 6.4 km/h 11.3 km/h 70 % 0.0 mm
13:57 12.4 °C 7.5 °C 1007.3 hPa SW 8.0 km/h 11.3 km/h 72 % 0.0 mm
14:02 12.4 °C 6.7 °C 1007.3 hPa SW 3.2 km/h 11.3 km/h 68 % 0.0 mm
14:07 12.7 °C 7.2 °C 1007.3 hPa SW 6.4 km/h 11.3 km/h 69 % 0.0 mm
14:17 12.9 °C 6.9 °C 1007.3 hPa SW 3.2 km/h 8.0 km/h 67 % 0.0 mm
14:22 13.3 °C 7.5 °C 1007.3 hPa SSW 4.8 km/h 8.0 km/h 68 % 0.0 mm
14:32 13.4 °C 8.0 °C 1007.0 hPa WSW 1.6 km/h 9.7 km/h 70 % 0.0 mm
14:37 13.6 °C 7.6 °C 1007.0 hPa SW 6.4 km/h 9.7 km/h 67 % 0.0 mm
14:42 13.6 °C 7.6 °C 1007.0 hPa SW 3.2 km/h 9.7 km/h 67 % 0.0 mm
14:47 13.5 °C 6.8 °C 1007.0 hPa South 3.2 km/h 9.7 km/h 64 % 0.0 mm
14:52 13.4 °C 7.6 °C 1007.0 hPa Calm   11.3 km/h 68 % 0.0 mm
14:57 13.3 °C 7.3 °C 1007.0 hPa SW 9.7 km/h 11.3 km/h 67 % 0.0 mm
15:02 13.4 °C 7.2 °C 1007.0 hPa SW 9.7 km/h 11.3 km/h 66 % 0.0 mm
15:07 13.1 °C 6.0 °C 1006.7 hPa WSW 1.6 km/h 14.5 km/h 62 % 0.0 mm
15:12 13.3 °C 7.3 °C 1006.7 hPa West 6.4 km/h 14.5 km/h 67 % 0.0 mm
15:17 13.1 °C 6.2 °C 1006.7 hPa SW 1.6 km/h 14.5 km/h 63 % 0.0 mm
15:22 12.7 °C 6.1 °C 1006.7 hPa SW 4.8 km/h 12.9 km/h 64 % 0.0 mm
15:27 12.4 °C 6.2 °C 1006.7 hPa SSW 1.6 km/h 12.9 km/h 66 % 0.0 mm
15:32 12.2 °C 6.9 °C 1006.7 hPa SW 4.8 km/h 11.3 km/h 70 % 0.0 mm
15:37 12.2 °C 7.9 °C 1006.7 hPa SW 3.2 km/h 11.3 km/h 75 % 0.0 mm
15:42 12.7 °C 8.2 °C 1006.7 hPa SW 3.2 km/h 9.7 km/h 74 % 0.3 mm
15:47 13.3 °C 7.9 °C 1006.3 hPa WSW 1.6 km/h 8.0 km/h 70 % 0.3 mm
15:52 13.3 °C 8.2 °C 1006.3 hPa SW 11.3 km/h 11.3 km/h 71 % 0.3 mm
15:57 14.1 °C 8.3 °C 1006.3 hPa WSW 3.2 km/h 12.9 km/h 68 % 0.3 mm
16:02 14.3 °C 8.0 °C 1006.3 hPa West 1.6 km/h 12.9 km/h 66 % 0.3 mm
16:07 14.2 °C 8.2 °C 1006.3 hPa WSW 4.8 km/h 12.9 km/h 67 % 0.3 mm
16:12 14.2 °C 7.7 °C 1006.3 hPa SW 8.0 km/h 11.3 km/h 65 % 0.3 mm
16:17 14.1 °C 7.6 °C 1006.3 hPa SSE 9.7 km/h 11.3 km/h 65 % 0.3 mm
16:22 13.8 °C 7.3 °C 1006.3 hPa SW 9.7 km/h 11.3 km/h 65 % 0.3 mm
16:27 13.5 °C 7.5 °C 1006.3 hPa SW 6.4 km/h 14.5 km/h 67 % 0.3 mm
16:32 13.3 °C 7.1 °C 1006.3 hPa WSW 6.4 km/h 14.5 km/h 66 % 0.3 mm
16:42 13.1 °C 7.5 °C 1006.3 hPa WSW 3.2 km/h 9.7 km/h 69 % 0.0 mm
16:47 12.9 °C 7.8 °C 1006.3 hPa East 3.2 km/h 9.7 km/h 71 % 0.0 mm
16:52 12.8 °C 7.7 °C 1006.3 hPa SW 4.8 km/h 8.0 km/h 71 % 0.0 mm
16:57 12.5 °C 6.8 °C 1006.3 hPa SW 4.8 km/h 11.3 km/h 68 % 0.0 mm
17:02 12.3 °C 6.6 °C 1006.3 hPa SW 6.4 km/h 11.3 km/h 68 % 0.0 mm
17:07 12.2 °C 6.5 °C 1006.3 hPa WSW 6.4 km/h 11.3 km/h 68 % 0.0 mm
17:12 12.2 °C 6.5 °C 1006.3 hPa SW 1.6 km/h 16.1 km/h 68 % 0.0 mm
17:17 12.2 °C 6.9 °C 1006.7 hPa SW 6.4 km/h 16.1 km/h 70 % 0.0 mm
17:22 12.0 °C 6.9 °C 1006.7 hPa SW 9.7 km/h 16.1 km/h 71 % 0.0 mm
17:27 11.8 °C 6.7 °C 1006.7 hPa SSW 6.4 km/h 16.1 km/h 71 % 0.0 mm
17:32 11.8 °C 7.1 °C 1006.7 hPa West 3.2 km/h 16.1 km/h 73 % 0.0 mm
17:37 11.7 °C 7.2 °C 1006.7 hPa SW 4.8 km/h 9.7 km/h 74 % 0.0 mm
17:42 11.4 °C 7.5 °C 1006.7 hPa SW 4.8 km/h 9.7 km/h 77 % 0.0 mm
17:47 11.1 °C 7.8 °C 1006.7 hPa Calm   9.7 km/h 80 % 0.0 mm
17:52 10.9 °C 7.9 °C 1006.7 hPa Calm   8.0 km/h 82 % 0.3 mm
17:57 10.7 °C 7.8 °C 1006.7 hPa SW 4.8 km/h 11.3 km/h 82 % 0.3 mm
18:02 10.5 °C 7.9 °C 1006.7 hPa SW 4.8 km/h 11.3 km/h 84 % 0.3 mm
18:07 10.3 °C 8.1 °C 1006.7 hPa SW 3.2 km/h 11.3 km/h 86 % 0.3 mm
18:12 10.3 °C 8.6 °C 1006.7 hPa Calm   11.3 km/h 89 % 0.3 mm
18:17 10.2 °C 8.5 °C 1006.7 hPa SW 3.2 km/h 9.7 km/h 89 % 0.3 mm
18:22 10.1 °C 8.2 °C 1006.7 hPa WSW 1.6 km/h 9.7 km/h 88 % 0.3 mm
18:27 10.2 °C 8.5 °C 1006.7 hPa WSW 1.6 km/h 9.7 km/h 89 % 0.3 mm
18:32 10.1 °C 8.4 °C 1006.7 hPa SW 4.8 km/h 9.7 km/h 89 % 0.3 mm
18:47 9.8 °C 8.6 °C 1006.7 hPa SW 1.6 km/h 8.0 km/h 92 % 0.5 mm
18:52 9.7 °C 8.6 °C 1007.0 hPa Calm   8.0 km/h 93 % 0.3 mm
18:57 9.8 °C 8.9 °C 1007.0 hPa South 3.2 km/h 8.0 km/h 94 % 0.3 mm
19:02 9.7 °C 8.6 °C 1007.0 hPa SSW 3.2 km/h 8.0 km/h 93 % 0.3 mm
19:07 9.6 °C 8.5 °C 1007.0 hPa Calm   6.4 km/h 93 % 0.5 mm
19:12 9.5 °C 8.6 °C 1007.0 hPa SW 4.8 km/h 8.0 km/h 94 % 0.5 mm
19:17 9.4 °C 8.5 °C 1007.0 hPa WSW 1.6 km/h 8.0 km/h 94 % 0.8 mm
19:22 9.4 °C 8.5 °C 1007.0 hPa SW 1.6 km/h 6.4 km/h 94 % 0.8 mm
19:27 9.3 °C 8.4 °C 1007.0 hPa SSW 1.6 km/h 6.4 km/h 94 % 1.0 mm
19:32 9.2 °C 8.1 °C 1007.0 hPa Calm   6.4 km/h 93 % 1.3 mm
19:37 9.1 °C 8.2 °C 1007.0 hPa SSW 1.6 km/h 6.4 km/h 94 % 1.5 mm
19:42 9.0 °C 8.1 °C 1007.0 hPa SW 1.6 km/h 6.4 km/h 94 % 1.5 mm
19:47 9.0 °C 8.1 °C 1007.0 hPa Calm   6.4 km/h 94 % 1.5 mm
19:52 9.0 °C 8.1 °C 1007.0 hPa Calm   3.2 km/h 94 % 1.5 mm
19:57 9.0 °C 8.1 °C 1007.3 hPa Calm   3.2 km/h 94 % 1.5 mm
20:02 9.0 °C 8.1 °C 1007.3 hPa Calm   3.2 km/h 94 % 1.5 mm
20:07 9.1 °C 8.3 °C 1007.3 hPa SW 1.6 km/h 4.8 km/h 95 % 1.5 mm
20:12 9.0 °C 8.2 °C 1007.3 hPa SW 1.6 km/h 4.8 km/h 95 % 1.3 mm
20:17 9.0 °C 8.2 °C 1007.3 hPa Calm   3.2 km/h 95 % 1.0 mm
20:22 9.1 °C 8.3 °C 1007.3 hPa Calm   1.6 km/h 95 % 0.8 mm
20:27 9.1 °C 8.3 °C 1007.3 hPa Calm   1.6 km/h 95 % 0.8 mm
20:32 9.1 °C 8.3 °C 1007.3 hPa Calm   3.2 km/h 95 % 0.5 mm
20:37 9.1 °C 8.3 °C 1007.3 hPa Calm   3.2 km/h 95 % 0.3 mm
20:42 9.1 °C 8.3 °C 1007.3 hPa WSW 1.6 km/h 3.2 km/h 95 % 0.3 mm
20:47 9.1 °C 8.3 °C 1007.7 hPa SW 3.2 km/h 3.2 km/h 95 % 0.3 mm
20:52 9.1 °C 8.3 °C 1007.7 hPa SW 1.6 km/h 4.8 km/h 95 % 0.3 mm
20:57 9.1 °C 8.5 °C 1007.7 hPa SW 4.8 km/h 4.8 km/h 96 % 0.3 mm
21:02 9.1 °C 8.3 °C 1007.7 hPa SW 3.2 km/h 6.4 km/h 95 % 0.0 mm
21:07 9.0 °C 8.1 °C 1008.0 hPa SW 1.6 km/h 6.4 km/h 94 % 0.0 mm
21:12 8.9 °C 8.0 °C 1008.0 hPa Calm   6.4 km/h 94 % 0.0 mm
21:17 8.8 °C 7.7 °C 1008.0 hPa Calm   6.4 km/h 93 % 0.0 mm
21:22 8.7 °C 7.6 °C 1008.4 hPa Calm   4.8 km/h 93 % 0.0 mm
21:32 8.5 °C 7.3 °C 1008.4 hPa Calm   3.2 km/h 92 % 0.0 mm
21:37 8.3 °C 6.9 °C 1008.4 hPa Calm   3.2 km/h 91 % 0.0 mm
21:42 8.2 °C 6.7 °C 1008.4 hPa SW 1.6 km/h 3.2 km/h 90 % 0.0 mm
21:47 8.1 °C 6.6 °C 1008.4 hPa SW 1.6 km/h 6.4 km/h 90 % 0.0 mm
21:52 8.1 °C 6.7 °C 1008.4 hPa SW 1.6 km/h 6.4 km/h 91 % 0.0 mm
22:02 7.9 °C 6.5 °C 1008.4 hPa Calm   4.8 km/h 91 % 0.0 mm
22:07 7.8 °C 6.6 °C 1008.4 hPa Calm   3.2 km/h 92 % 0.0 mm
22:12 7.7 °C 6.5 °C 1008.4 hPa Calm   1.6 km/h 92 % 0.0 mm
22:17 7.6 °C 6.4 °C 1008.4 hPa Calm     92 % 0.0 mm
22:22 7.5 °C 6.3 °C 1008.4 hPa Calm     92 % 0.0 mm
22:27 7.4 °C 6.3 °C 1008.7 hPa Calm     93 % 0.0 mm
22:32 7.3 °C 6.2 °C 1008.7 hPa Calm     93 % 0.0 mm
22:37 7.3 °C 6.2 °C 1008.7 hPa Calm     93 % 0.0 mm
22:42 7.3 °C 6.4 °C 1008.7 hPa Calm     94 % 0.0 mm
22:47 7.3 °C 6.4 °C 1008.7 hPa Calm     94 % 0.0 mm
22:52 7.3 °C 6.4 °C 1008.7 hPa Calm     94 % 0.0 mm
23:02 7.2 °C 6.3 °C 1008.7 hPa Calm     94 % 0.0 mm
23:12 6.9 °C 6.0 °C 1008.7 hPa Calm     94 % 0.0 mm
23:17 6.8 °C 5.9 °C 1008.7 hPa Calm     94 % 0.0 mm
23:22 6.6 °C 5.7 °C 1008.7 hPa Calm     94 % 0.0 mm
23:27 6.4 °C 5.4 °C 1008.7 hPa Calm     93 % 0.0 mm
23:32 6.1 °C 5.1 °C 1008.7 hPa Calm     93 % 0.0 mm
23:37 5.8 °C 4.8 °C 1009.0 hPa Calm     93 % 0.0 mm
23:42 5.6 °C 4.7 °C 1008.7 hPa Calm     94 % 0.0 mm
23:47 5.4 °C 4.5 °C 1008.7 hPa Calm     94 % 0.0 mm
23:52 5.5 °C 4.8 °C 1009.0 hPa Calm     95 % 0.0 mm
23:57 5.3 °C 4.4 °C 1009.0 hPa Calm     94 % 0.0 mm
Meteo18
Compliments of Weather Underground - 4 mb

Script developed by  Jim McMurry - jmcmurry@mwt.net Adapted for the template by  Wim van der Kuil - Leuven-Template.eu

You find our weather info also at:

European Weather Network

Weather Underground

Equipment we use:

Weather-station
Davis Vue

Weather-program
Meteohub

Weather-server
Raspberry PI 2 B+

Provider
1 and 1

Davis Vue

Meteohub

Raspberry PI 2 B+

1 and 1